createdAt,value
2022-09-04T00:00:39.716Z,1007.77
2022-09-04T00:01:45.058Z,1007.78
2022-09-04T00:02:39.757Z,1007.77
2022-09-04T00:03:39.864Z,1007.78
2022-09-04T00:04:39.755Z,1007.72
2022-09-04T00:05:39.633Z,1007.78
2022-09-04T00:06:39.614Z,1007.77
2022-09-04T00:07:39.657Z,1007.77
2022-09-04T00:08:39.623Z,1007.76
2022-09-04T00:09:39.566Z,1007.81
2022-09-04T00:10:39.545Z,1007.80
2022-09-04T00:11:39.530Z,1007.77
2022-09-04T00:12:39.514Z,1007.79
2022-09-04T00:13:39.498Z,1007.77
2022-09-04T00:14:39.478Z,1007.84
2022-09-04T00:15:39.462Z,1007.82
2022-09-04T00:16:39.485Z,1007.83
2022-09-04T00:17:39.429Z,1007.84
2022-09-04T00:18:39.410Z,1007.81
2022-09-04T00:19:39.395Z,1007.86
2022-09-04T00:20:39.377Z,1007.83
2022-09-04T00:21:39.358Z,1007.83
2022-09-04T00:22:39.342Z,1007.88
2022-09-04T00:23:39.325Z,1007.87
2022-09-04T00:24:39.308Z,1007.84
2022-09-04T00:25:39.294Z,1007.89
2022-09-04T00:26:39.274Z,1007.93
2022-09-04T00:27:39.258Z,1007.92
2022-09-04T00:28:39.240Z,1007.92
2022-09-04T00:29:39.222Z,1007.92
2022-09-04T00:30:39.237Z,1007.97
2022-09-04T00:31:39.191Z,1007.95
2022-09-04T00:32:39.174Z,1007.96
2022-09-04T00:33:39.156Z,1007.97
2022-09-04T00:34:39.136Z,1007.99
2022-09-04T00:35:39.398Z,1007.99
2022-09-04T00:36:39.099Z,1008.01
2022-09-04T00:37:39.089Z,1008.01
2022-09-04T00:38:39.067Z,1008.00
2022-09-04T00:39:39.111Z,1008.03
2022-09-04T00:40:39.036Z,1008.04
2022-09-04T00:41:39.023Z,1008.04
2022-09-04T00:42:39.001Z,1008.05
2022-09-04T00:43:38.984Z,1008.05
2022-09-04T00:44:38.966Z,1008.06
2022-09-04T00:45:39.069Z,1008.06
2022-09-04T00:46:38.931Z,1008.10
2022-09-04T00:47:38.918Z,1008.10
2022-09-04T00:48:38.896Z,1008.14
2022-09-04T00:49:38.881Z,1008.16
2022-09-04T00:50:38.862Z,1008.13
2022-09-04T00:51:38.846Z,1008.17
2022-09-04T00:52:38.833Z,1008.19
2022-09-04T00:53:38.815Z,1008.20
2022-09-04T00:54:38.795Z,1008.25
2022-09-04T00:55:38.777Z,1008.29
2022-09-04T00:56:38.757Z,1008.29
2022-09-04T00:57:38.747Z,1008.30
2022-09-04T00:58:38.727Z,1008.30
2022-09-04T00:59:38.707Z,1008.30
2022-09-04T01:00:38.689Z,1008.28
2022-09-04T01:01:38.960Z,1008.31
2022-09-04T01:02:38.653Z,1008.28
2022-09-04T01:03:38.638Z,1008.28
2022-09-04T01:04:38.622Z,1008.29
2022-09-04T01:05:38.603Z,1008.34
2022-09-04T01:06:38.584Z,1008.29
2022-09-04T01:07:38.574Z,1008.31
2022-09-04T01:08:38.550Z,1008.34
2022-09-04T01:09:38.535Z,1008.30
2022-09-04T01:10:38.518Z,1008.31
2022-09-04T01:11:38.505Z,1008.36
2022-09-04T01:12:38.485Z,1008.38
2022-09-04T01:13:38.473Z,1008.37
2022-09-04T01:14:38.447Z,1008.38
2022-09-04T01:15:38.431Z,1008.36
2022-09-04T01:16:38.434Z,1008.37
2022-09-04T01:17:38.396Z,1008.37
2022-09-04T01:18:38.381Z,1008.36
2022-09-04T01:19:38.362Z,1008.39
2022-09-04T01:20:38.349Z,1008.37
2022-09-04T01:21:38.327Z,1008.39
2022-09-04T01:22:38.311Z,1008.43
2022-09-04T01:23:38.290Z,1008.45
2022-09-04T01:24:38.275Z,1008.42
2022-09-04T01:25:38.256Z,1008.43
2022-09-04T01:26:38.239Z,1008.44
2022-09-04T01:27:38.219Z,1008.43
2022-09-04T01:28:38.208Z,1008.42
2022-09-04T01:29:38.191Z,1008.38
2022-09-04T01:30:38.168Z,1008.36
2022-09-04T01:31:38.221Z,1008.37
2022-09-04T01:32:38.137Z,1008.35
2022-09-04T01:33:38.118Z,1008.35
2022-09-04T01:34:38.099Z,1008.35
2022-09-04T01:35:38.084Z,1008.32
2022-09-04T01:36:38.067Z,1008.34
2022-09-04T01:37:38.048Z,1008.31
2022-09-04T01:38:38.029Z,1008.31
2022-09-04T01:39:38.105Z,1008.33
2022-09-04T01:40:37.995Z,1008.36
2022-09-04T01:41:38.707Z,1008.36
2022-09-04T01:42:37.961Z,1008.30
2022-09-04T01:43:37.945Z,1008.33
2022-09-04T01:44:37.928Z,1008.33
2022-09-04T01:45:37.934Z,1008.32
2022-09-04T01:46:37.891Z,1008.33
2022-09-04T01:47:37.870Z,1008.35
2022-09-04T01:48:37.855Z,1008.38
2022-09-04T01:49:37.838Z,1008.38
2022-09-04T01:50:37.822Z,1008.41
2022-09-04T01:51:37.805Z,1008.40
2022-09-04T01:52:37.785Z,1008.40
2022-09-04T01:53:37.766Z,1008.39
2022-09-04T01:54:37.764Z,1008.36
2022-09-04T01:55:37.734Z,1008.38
2022-09-04T01:56:37.717Z,1008.40
2022-09-04T01:57:37.699Z,1008.40
2022-09-04T01:58:37.682Z,1008.37
2022-09-04T01:59:37.661Z,1008.38
2022-09-04T02:00:37.933Z,1008.40
2022-09-04T02:01:37.627Z,1008.38
2022-09-04T02:02:37.714Z,1008.37
2022-09-04T02:03:37.591Z,1008.38
2022-09-04T02:04:37.575Z,1008.38
2022-09-04T02:05:37.557Z,1008.36
2022-09-04T02:06:37.545Z,1008.34
2022-09-04T02:07:37.525Z,1008.38
2022-09-04T02:08:37.507Z,1008.37
2022-09-04T02:09:37.486Z,1008.37
2022-09-04T02:10:37.470Z,1008.40
2022-09-04T02:11:37.452Z,1008.39
2022-09-04T02:12:37.440Z,1008.42
2022-09-04T02:13:37.418Z,1008.42
2022-09-04T02:14:37.401Z,1008.38
2022-09-04T02:15:37.381Z,1008.40
2022-09-04T02:16:37.414Z,1008.38
2022-09-04T02:17:37.347Z,1008.36
2022-09-04T02:18:37.329Z,1008.38
2022-09-04T02:19:37.312Z,1008.40
2022-09-04T02:20:37.296Z,1008.38
2022-09-04T02:21:37.277Z,1008.36
2022-09-04T02:22:37.261Z,1008.39
2022-09-04T02:23:37.241Z,1008.36
2022-09-04T02:24:37.222Z,1008.36
2022-09-04T02:25:37.207Z,1008.35
2022-09-04T02:26:37.191Z,1008.32
2022-09-04T02:27:37.171Z,1008.41
2022-09-04T02:28:37.154Z,1008.41
2022-09-04T02:29:37.135Z,1008.38
2022-09-04T02:30:37.118Z,1008.41
2022-09-04T02:31:37.155Z,1008.41
2022-09-04T02:32:37.083Z,1008.38
2022-09-04T02:33:37.069Z,1008.44
2022-09-04T02:34:37.050Z,1008.44
2022-09-04T02:35:37.028Z,1008.45
2022-09-04T02:36:37.014Z,1008.45
2022-09-04T02:37:36.994Z,1008.45
2022-09-04T02:38:36.979Z,1008.42
2022-09-04T02:39:37.047Z,1008.43
2022-09-04T02:40:36.948Z,1008.41
2022-09-04T02:41:36.924Z,1008.40
2022-09-04T02:42:36.907Z,1008.40
2022-09-04T02:43:36.887Z,1008.44
2022-09-04T02:44:36.873Z,1008.43
2022-09-04T02:45:36.856Z,1008.41
2022-09-04T02:46:41.201Z,1008.46
2022-09-04T02:47:36.820Z,1008.45
2022-09-04T02:48:36.802Z,1008.47
2022-09-04T02:49:36.781Z,1008.48
2022-09-04T02:50:36.766Z,1008.46
2022-09-04T02:51:36.749Z,1008.49
2022-09-04T02:52:36.729Z,1008.48
2022-09-04T02:53:36.710Z,1008.52
2022-09-04T02:54:36.693Z,1008.55
2022-09-04T02:55:36.678Z,1008.53
2022-09-04T02:56:36.664Z,1008.56
2022-09-04T02:57:36.640Z,1008.57
2022-09-04T02:58:36.625Z,1008.57
2022-09-04T02:59:36.608Z,1008.60
2022-09-04T03:00:36.641Z,1008.62
2022-09-04T03:01:36.611Z,1008.58
2022-09-04T03:02:36.554Z,1008.59
2022-09-04T03:03:36.534Z,1008.67
2022-09-04T03:04:36.516Z,1008.65
2022-09-04T03:05:36.496Z,1008.64
2022-09-04T03:06:36.485Z,1008.63
2022-09-04T03:07:36.460Z,1008.64
2022-09-04T03:08:36.628Z,1008.63
2022-09-04T03:09:36.428Z,1008.65
2022-09-04T03:10:36.410Z,1008.67
2022-09-04T03:11:36.391Z,1008.67
2022-09-04T03:12:36.377Z,1008.68
2022-09-04T03:13:36.357Z,1008.69
2022-09-04T03:14:36.339Z,1008.72
2022-09-04T03:15:36.323Z,1008.70
2022-09-04T03:16:36.358Z,1008.72
2022-09-04T03:17:36.284Z,1008.71
2022-09-04T03:18:36.268Z,1008.68
2022-09-04T03:19:36.251Z,1008.65
2022-09-04T03:20:36.232Z,1008.66
2022-09-04T03:21:36.212Z,1008.64
2022-09-04T03:22:36.198Z,1008.62
2022-09-04T03:23:36.177Z,1008.67
2022-09-04T03:24:36.161Z,1008.65
2022-09-04T03:25:36.141Z,1008.69
2022-09-04T03:26:36.126Z,1008.63
2022-09-04T03:27:36.103Z,1008.68
2022-09-04T03:28:36.089Z,1008.70
2022-09-04T03:29:36.071Z,1008.67
2022-09-04T03:30:36.054Z,1008.69
2022-09-04T03:31:36.087Z,1008.67
2022-09-04T03:32:36.017Z,1008.67
2022-09-04T03:33:36.000Z,1008.62
2022-09-04T03:34:35.981Z,1008.67
2022-09-04T03:35:35.962Z,1008.70
2022-09-04T03:36:35.945Z,1008.73
2022-09-04T03:37:35.926Z,1008.75
2022-09-04T03:38:35.908Z,1008.78
2022-09-04T03:39:35.964Z,1008.77
2022-09-04T03:40:35.876Z,1008.79
2022-09-04T03:41:35.859Z,1008.78
2022-09-04T03:42:35.838Z,1008.80
2022-09-04T03:43:35.818Z,1008.77
2022-09-04T03:44:35.801Z,1008.80
2022-09-04T03:45:35.784Z,1008.79
2022-09-04T03:46:35.790Z,1008.77
2022-09-04T03:47:35.744Z,1008.78
2022-09-04T03:48:35.729Z,1008.80
2022-09-04T03:49:35.712Z,1008.79
2022-09-04T03:50:35.692Z,1008.78
2022-09-04T03:51:35.675Z,1008.81
2022-09-04T03:52:35.656Z,1008.84
2022-09-04T03:53:35.636Z,1008.87
2022-09-04T03:54:35.621Z,1008.87
2022-09-04T03:55:35.601Z,1008.90
2022-09-04T03:56:35.591Z,1008.89
2022-09-04T03:57:35.567Z,1008.93
2022-09-04T03:58:35.550Z,1008.92
2022-09-04T03:59:37.913Z,1008.88
2022-09-04T04:00:35.540Z,1008.91
2022-09-04T04:01:35.495Z,1008.90
2022-09-04T04:02:35.584Z,1008.92
2022-09-04T04:03:35.456Z,1008.90
2022-09-04T04:04:35.441Z,1008.92
2022-09-04T04:05:35.423Z,1008.87
2022-09-04T04:06:35.406Z,1008.90
2022-09-04T04:07:35.386Z,1008.88
2022-09-04T04:08:35.370Z,1008.90
2022-09-04T04:09:35.351Z,1008.92
2022-09-04T04:10:35.341Z,1008.91
2022-09-04T04:11:35.746Z,1008.90
2022-09-04T04:12:35.298Z,1008.93
2022-09-04T04:13:35.281Z,1008.95
2022-09-04T04:14:35.261Z,1008.95
2022-09-04T04:15:35.242Z,1008.93
2022-09-04T04:16:35.269Z,1008.91
2022-09-04T04:17:35.207Z,1008.91
2022-09-04T04:18:35.191Z,1008.91
2022-09-04T04:19:35.175Z,1008.90
2022-09-04T04:20:35.156Z,1008.93
2022-09-04T04:21:35.135Z,1008.94
2022-09-04T04:22:35.117Z,1008.94
2022-09-04T04:23:35.101Z,1008.94
2022-09-04T04:24:35.083Z,1008.94
2022-09-04T04:25:35.063Z,1008.99
2022-09-04T04:26:35.054Z,1008.96
2022-09-04T04:27:35.026Z,1008.97
2022-09-04T04:28:35.011Z,1008.95
2022-09-04T04:29:34.993Z,1008.99
2022-09-04T04:30:34.973Z,1009.01
2022-09-04T04:31:35.019Z,1009.01
2022-09-04T04:32:34.939Z,1009.02
2022-09-04T04:33:34.921Z,1009.09
2022-09-04T04:34:34.902Z,1009.05
2022-09-04T04:35:34.883Z,1009.06
2022-09-04T04:36:34.869Z,1009.09
2022-09-04T04:37:34.847Z,1009.09
2022-09-04T04:38:34.829Z,1009.09
2022-09-04T04:39:34.908Z,1009.13
2022-09-04T04:40:34.794Z,1009.13
2022-09-04T04:41:34.776Z,1009.14
2022-09-04T04:42:34.761Z,1009.11
2022-09-04T04:43:34.738Z,1009.14
2022-09-04T04:44:34.722Z,1009.14
2022-09-04T04:45:34.702Z,1009.15
2022-09-04T04:46:34.815Z,1009.14
2022-09-04T04:47:34.666Z,1009.12
2022-09-04T04:48:34.656Z,1009.15
2022-09-04T04:49:34.629Z,1009.13
2022-09-04T04:50:34.617Z,1009.14
2022-09-04T04:51:34.593Z,1009.14
2022-09-04T04:52:34.577Z,1009.16
2022-09-04T04:53:34.561Z,1009.19
2022-09-04T04:54:34.543Z,1009.17
2022-09-04T04:55:34.521Z,1009.15
2022-09-04T04:56:34.506Z,1009.20
2022-09-04T04:57:34.487Z,1009.22
2022-09-04T04:58:34.467Z,1009.24
2022-09-04T04:59:34.449Z,1009.20
2022-09-04T05:00:34.434Z,1009.29
2022-09-04T05:01:34.526Z,1009.28
2022-09-04T05:02:34.481Z,1009.28
2022-09-04T05:03:34.378Z,1009.29
2022-09-04T05:04:34.362Z,1009.30
2022-09-04T05:05:34.339Z,1009.32
2022-09-04T05:06:34.322Z,1009.30
2022-09-04T05:07:34.302Z,1009.28
2022-09-04T05:08:34.289Z,1009.30
2022-09-04T05:09:34.267Z,1009.31
2022-09-04T05:10:34.255Z,1009.34
2022-09-04T05:11:34.231Z,1009.34
2022-09-04T05:12:34.214Z,1009.36
2022-09-04T05:13:34.196Z,1009.34
2022-09-04T05:14:34.177Z,1009.34
2022-09-04T05:15:38.031Z,1009.36
2022-09-04T05:16:34.275Z,1009.39
2022-09-04T05:17:34.122Z,1009.38
2022-09-04T05:18:34.107Z,1009.36
2022-09-04T05:19:34.087Z,1009.40
2022-09-04T05:20:34.068Z,1009.37
2022-09-04T05:21:34.049Z,1009.40
2022-09-04T05:22:34.483Z,1009.45
2022-09-04T05:23:34.014Z,1009.44
2022-09-04T05:24:33.996Z,1009.48
2022-09-04T05:25:33.978Z,1009.52
2022-09-04T05:26:33.964Z,1009.56
2022-09-04T05:27:33.939Z,1009.54
2022-09-04T05:28:33.922Z,1009.56
2022-09-04T05:29:33.912Z,1009.60
2022-09-04T05:30:33.887Z,1009.63
2022-09-04T05:31:33.968Z,1009.61
2022-09-04T05:32:33.848Z,1009.64
2022-09-04T05:33:33.832Z,1009.65
2022-09-04T05:34:33.812Z,1009.64
2022-09-04T05:35:35.636Z,1009.68
2022-09-04T05:36:33.776Z,1009.71
2022-09-04T05:37:33.762Z,1009.69
2022-09-04T05:38:33.739Z,1009.73
2022-09-04T05:39:33.878Z,1009.75
2022-09-04T05:40:33.703Z,1009.76
2022-09-04T05:41:33.690Z,1009.79
2022-09-04T05:42:33.667Z,1009.81
2022-09-04T05:43:33.652Z,1009.80
2022-09-04T05:44:33.630Z,1009.80
2022-09-04T05:45:33.613Z,1009.80
2022-09-04T05:46:33.675Z,1009.82
2022-09-04T05:47:33.579Z,1009.83
2022-09-04T05:48:33.561Z,1009.84
2022-09-04T05:49:33.542Z,1009.85
2022-09-04T05:50:33.522Z,1009.86
2022-09-04T05:51:34.916Z,1009.89
2022-09-04T05:52:33.484Z,1009.87
2022-09-04T05:53:33.469Z,1009.87
2022-09-04T05:54:33.448Z,1009.91
2022-09-04T05:55:33.431Z,1009.91
2022-09-04T05:56:33.417Z,1009.91
2022-09-04T05:57:33.397Z,1009.93
2022-09-04T05:58:33.377Z,1009.94
2022-09-04T05:59:33.358Z,1009.99
2022-09-04T06:00:33.340Z,1010.00
2022-09-04T06:01:33.369Z,1010.01
2022-09-04T06:02:33.345Z,1010.04
2022-09-04T06:03:33.288Z,1010.06
2022-09-04T06:04:33.267Z,1010.07
2022-09-04T06:05:33.252Z,1010.08
2022-09-04T06:06:33.230Z,1010.12
2022-09-04T06:07:33.213Z,1010.06
2022-09-04T06:08:33.278Z,1010.06
2022-09-04T06:09:33.177Z,1010.07
2022-09-04T06:10:33.157Z,1010.07
2022-09-04T06:11:33.141Z,1010.07
2022-09-04T06:12:33.124Z,1010.08
2022-09-04T06:13:33.106Z,1010.13
2022-09-04T06:14:33.090Z,1010.11
2022-09-04T06:15:33.067Z,1010.16
2022-09-04T06:16:33.049Z,1010.16
2022-09-04T06:17:33.037Z,1010.14
2022-09-04T06:18:33.010Z,1010.19
2022-09-04T06:19:32.996Z,1010.20
2022-09-04T06:20:32.974Z,1010.20
2022-09-04T06:21:32.962Z,1010.27
2022-09-04T06:22:32.939Z,1010.24
2022-09-04T06:23:32.926Z,1010.24
2022-09-04T06:24:32.901Z,1010.28
2022-09-04T06:25:32.889Z,1010.29
2022-09-04T06:26:32.868Z,1010.29
2022-09-04T06:27:34.529Z,1010.31
2022-09-04T06:28:32.830Z,1010.37
2022-09-04T06:29:32.815Z,1010.37
2022-09-04T06:30:32.794Z,1010.34
2022-09-04T06:31:32.846Z,1010.32
2022-09-04T06:32:32.833Z,1010.35
2022-09-04T06:33:32.741Z,1010.36
2022-09-04T06:34:32.738Z,1010.33
2022-09-04T06:35:32.707Z,1010.33
2022-09-04T06:36:32.687Z,1010.27
2022-09-04T06:37:32.672Z,1010.23
2022-09-04T06:38:32.652Z,1010.24
2022-09-04T06:39:32.678Z,1010.26
2022-09-04T06:40:32.617Z,1010.28
2022-09-04T06:41:32.601Z,1010.24
2022-09-04T06:42:32.578Z,1010.29
2022-09-04T06:43:32.561Z,1010.25
2022-09-04T06:44:32.543Z,1010.26
2022-09-04T06:45:32.530Z,1010.25
2022-09-04T06:46:32.522Z,1010.30
2022-09-04T06:47:32.490Z,1010.29
2022-09-04T06:48:32.470Z,1010.32
2022-09-04T06:49:32.457Z,1010.35
2022-09-04T06:50:32.432Z,1010.31
2022-09-04T06:51:32.843Z,1010.36
2022-09-04T06:52:32.400Z,1010.38
2022-09-04T06:53:32.399Z,1010.42
2022-09-04T06:54:32.514Z,1010.38
2022-09-04T06:55:32.347Z,1010.42
2022-09-04T06:56:32.330Z,1010.41
2022-09-04T06:57:32.307Z,1010.43
2022-09-04T06:58:32.287Z,1010.38
2022-09-04T06:59:32.272Z,1010.35
2022-09-04T07:00:32.254Z,1010.36
2022-09-04T07:01:32.388Z,1010.35
2022-09-04T07:02:32.363Z,1010.39
2022-09-04T07:03:32.203Z,1010.35
2022-09-04T07:04:32.183Z,1010.34
2022-09-04T07:05:32.164Z,1010.40
2022-09-04T07:06:32.148Z,1010.37
2022-09-04T07:07:32.131Z,1010.34
2022-09-04T07:08:32.110Z,1010.38
2022-09-04T07:09:32.094Z,1010.38
2022-09-04T07:10:32.075Z,1010.41
2022-09-04T07:11:32.056Z,1010.42
2022-09-04T07:12:32.038Z,1010.42
2022-09-04T07:13:32.020Z,1010.43
2022-09-04T07:14:32.000Z,1010.43
2022-09-04T07:15:32.036Z,1010.49
2022-09-04T07:16:31.964Z,1010.46
2022-09-04T07:17:31.948Z,1010.45
2022-09-04T07:18:31.927Z,1010.44
2022-09-04T07:19:31.915Z,1010.48
2022-09-04T07:20:31.896Z,1010.45
2022-09-04T07:21:31.876Z,1010.44
2022-09-04T07:22:31.854Z,1010.48
2022-09-04T07:23:31.846Z,1010.51
2022-09-04T07:24:31.819Z,1010.48
2022-09-04T07:25:31.808Z,1010.48
2022-09-04T07:26:31.787Z,1010.50
2022-09-04T07:27:31.768Z,1010.52
2022-09-04T07:28:31.749Z,1010.50
2022-09-04T07:29:31.736Z,1010.49
2022-09-04T07:30:31.718Z,1010.49
2022-09-04T07:31:31.719Z,1010.51
2022-09-04T07:32:31.677Z,1010.50
2022-09-04T07:33:31.668Z,1010.55
2022-09-04T07:34:31.643Z,1010.58
2022-09-04T07:35:31.625Z,1010.55
2022-09-04T07:36:32.131Z,1010.57
2022-09-04T07:37:31.592Z,1010.60
2022-09-04T07:38:31.570Z,1010.58
2022-09-04T07:39:31.603Z,1010.63
2022-09-04T07:40:31.537Z,1010.62
2022-09-04T07:41:31.532Z,1010.61
2022-09-04T07:42:31.507Z,1010.64
2022-09-04T07:43:31.485Z,1010.64
2022-09-04T07:44:31.467Z,1010.61
2022-09-04T07:45:31.556Z,1010.64
2022-09-04T07:46:31.504Z,1010.67
2022-09-04T07:47:31.418Z,1010.64
2022-09-04T07:48:31.395Z,1010.66
2022-09-04T07:49:31.377Z,1010.65
2022-09-04T07:50:31.358Z,1010.69
2022-09-04T07:51:31.356Z,1010.68
2022-09-04T07:52:31.322Z,1010.65
2022-09-04T07:53:31.308Z,1010.67
2022-09-04T07:54:31.286Z,1010.64
2022-09-04T07:55:31.273Z,1010.67
2022-09-04T07:56:31.253Z,1010.69
2022-09-04T07:57:31.285Z,1010.72
2022-09-04T07:58:31.219Z,1010.69
2022-09-04T07:59:31.202Z,1010.72
2022-09-04T08:00:31.182Z,1010.75
2022-09-04T08:01:31.264Z,1010.74
2022-09-04T08:02:31.146Z,1010.76
2022-09-04T08:03:31.131Z,1010.76
2022-09-04T08:04:31.191Z,1010.78
2022-09-04T08:05:31.098Z,1010.77
2022-09-04T08:06:31.082Z,1010.82
2022-09-04T08:07:31.063Z,1010.85
2022-09-04T08:08:31.045Z,1010.84
2022-09-04T08:09:31.027Z,1010.87
2022-09-04T08:10:31.008Z,1010.87
2022-09-04T08:11:30.992Z,1010.88
2022-09-04T08:12:30.973Z,1010.91
2022-09-04T08:13:30.959Z,1010.90
2022-09-04T08:14:30.941Z,1010.89
2022-09-04T08:15:30.976Z,1010.96
2022-09-04T08:16:30.904Z,1010.91
2022-09-04T08:17:30.889Z,1010.90
2022-09-04T08:18:30.868Z,1010.90
2022-09-04T08:19:30.855Z,1010.93
2022-09-04T08:20:30.834Z,1010.96
2022-09-04T08:21:30.818Z,1010.96
2022-09-04T08:22:30.800Z,1010.97
2022-09-04T08:23:30.787Z,1010.98
2022-09-04T08:24:30.788Z,1011.01
2022-09-04T08:25:30.750Z,1010.98
2022-09-04T08:26:30.733Z,1011.02
2022-09-04T08:27:30.717Z,1011.01
2022-09-04T08:28:30.703Z,1011.00
2022-09-04T08:29:30.681Z,1011.05
2022-09-04T08:30:30.664Z,1011.06
2022-09-04T08:31:30.753Z,1011.06
2022-09-04T08:32:37.871Z,1011.05
2022-09-04T08:33:30.613Z,1011.03
2022-09-04T08:34:30.605Z,1011.08
2022-09-04T08:35:30.579Z,1011.09
2022-09-04T08:36:30.561Z,1011.05
2022-09-04T08:37:30.550Z,1011.08
2022-09-04T08:38:30.526Z,1011.05
2022-09-04T08:39:30.558Z,1011.08
2022-09-04T08:40:30.492Z,1011.05
2022-09-04T08:41:30.478Z,1011.09
2022-09-04T08:42:30.461Z,1011.05
2022-09-04T08:43:30.443Z,1011.02
2022-09-04T08:44:30.429Z,1011.00
2022-09-04T08:45:30.409Z,1011.00
2022-09-04T08:46:30.413Z,1011.02
2022-09-04T08:47:30.378Z,1011.01
2022-09-04T08:48:30.359Z,1011.01
2022-09-04T08:49:30.344Z,1011.03
2022-09-04T08:50:30.664Z,1011.05
2022-09-04T08:51:30.307Z,1011.07
2022-09-04T08:52:30.289Z,1011.05
2022-09-04T08:53:30.273Z,1011.07
2022-09-04T08:54:30.255Z,1011.05
2022-09-04T08:55:30.239Z,1011.09
2022-09-04T08:56:30.220Z,1011.10
2022-09-04T08:57:30.208Z,1011.10
2022-09-04T08:58:30.188Z,1011.09
2022-09-04T08:59:30.173Z,1011.08
2022-09-04T09:00:30.159Z,1011.09
2022-09-04T09:01:30.165Z,1011.12
2022-09-04T09:02:30.155Z,1011.13
2022-09-04T09:03:30.106Z,1011.14
2022-09-04T09:04:30.089Z,1011.11
2022-09-04T09:05:30.079Z,1011.15
2022-09-04T09:06:30.057Z,1011.14
2022-09-04T09:07:30.041Z,1011.17
2022-09-04T09:08:31.770Z,1011.13
2022-09-04T09:09:30.006Z,1011.16
2022-09-04T09:10:29.989Z,1011.16
2022-09-04T09:11:29.974Z,1011.18
2022-09-04T09:12:40.841Z,1011.15
2022-09-04T09:13:29.941Z,1011.19
2022-09-04T09:14:29.922Z,1011.19
2022-09-04T09:15:29.909Z,1011.20
2022-09-04T09:16:29.961Z,1011.20
2022-09-04T09:17:34.562Z,1011.18
2022-09-04T09:18:29.857Z,1011.17
2022-09-04T09:19:29.841Z,1011.19
2022-09-04T09:20:29.824Z,1011.15
2022-09-04T09:21:29.808Z,1011.21
2022-09-04T09:22:29.792Z,1011.19
2022-09-04T09:23:29.777Z,1011.22
2022-09-04T09:24:29.757Z,1011.22
2022-09-04T09:25:29.742Z,1011.23
2022-09-04T09:26:29.723Z,1011.18
2022-09-04T09:27:29.710Z,1011.23
2022-09-04T09:28:29.692Z,1011.23
2022-09-04T09:29:29.677Z,1011.26
2022-09-04T09:30:29.702Z,1011.22
2022-09-04T09:31:29.642Z,1011.21
2022-09-04T09:32:29.626Z,1011.21
2022-09-04T09:33:29.612Z,1011.19
2022-09-04T09:34:29.591Z,1011.15
2022-09-04T09:35:29.578Z,1011.17
2022-09-04T09:36:29.561Z,1011.18
2022-09-04T09:37:29.548Z,1011.17
2022-09-04T09:38:29.528Z,1011.15
2022-09-04T09:39:29.575Z,1011.16
2022-09-04T09:40:29.495Z,1011.16
2022-09-04T09:41:29.482Z,1011.17
2022-09-04T09:42:29.463Z,1011.16
2022-09-04T09:43:29.447Z,1011.17
2022-09-04T09:44:29.492Z,1011.20
2022-09-04T09:45:29.418Z,1011.19
2022-09-04T09:46:29.452Z,1011.17
2022-09-04T09:47:29.380Z,1011.20
2022-09-04T09:48:29.363Z,1011.20
2022-09-04T09:49:29.351Z,1011.21
2022-09-04T09:50:29.334Z,1011.24
2022-09-04T09:51:29.321Z,1011.25
2022-09-04T09:52:29.302Z,1011.24
2022-09-04T09:53:29.282Z,1011.26
2022-09-04T09:54:29.268Z,1011.24
2022-09-04T09:55:29.252Z,1011.26
2022-09-04T09:56:29.238Z,1011.30
2022-09-04T09:57:33.341Z,1011.29
2022-09-04T09:58:29.206Z,1011.30
2022-09-04T09:59:29.187Z,1011.30
2022-09-04T10:00:29.177Z,1011.31
2022-09-04T10:01:29.186Z,1011.34
2022-09-04T10:02:29.172Z,1011.33
2022-09-04T10:03:29.129Z,1011.32
2022-09-04T10:04:34.047Z,1011.30
2022-09-04T10:05:29.096Z,1011.29
2022-09-04T10:06:29.083Z,1011.30
2022-09-04T10:07:29.065Z,1011.29
2022-09-04T10:08:35.784Z,1011.28
2022-09-04T10:09:29.036Z,1011.26
2022-09-04T10:10:29.019Z,1011.28
2022-09-04T10:11:29.007Z,1011.29
2022-09-04T10:12:28.993Z,1011.25
2022-09-04T10:13:28.975Z,1011.22
2022-09-04T10:14:28.963Z,1011.22
2022-09-04T10:15:28.945Z,1011.22
2022-09-04T10:16:28.977Z,1011.20
2022-09-04T10:17:28.966Z,1011.18
2022-09-04T10:18:28.961Z,1011.14
2022-09-04T10:19:28.930Z,1011.20
2022-09-04T10:20:28.938Z,1011.18
2022-09-04T10:21:28.905Z,1011.22
2022-09-04T10:22:28.844Z,1011.21
2022-09-04T10:23:28.830Z,1011.18
2022-09-04T10:24:28.817Z,1011.20
2022-09-04T10:25:28.798Z,1011.18
2022-09-04T10:26:31.704Z,1011.18
2022-09-04T10:27:28.773Z,1011.14
2022-09-04T10:28:28.757Z,1011.18
2022-09-04T10:29:28.743Z,1011.19
2022-09-04T10:30:28.781Z,1011.19
2022-09-04T10:31:28.715Z,1011.19
2022-09-04T10:32:28.700Z,1011.19
2022-09-04T10:33:28.703Z,1011.17
2022-09-04T10:34:28.674Z,1011.13
2022-09-04T10:35:28.658Z,1011.13
2022-09-04T10:36:28.647Z,1011.18
2022-09-04T10:37:28.634Z,1011.14
2022-09-04T10:38:28.617Z,1011.12
2022-09-04T10:39:28.659Z,1011.15
2022-09-04T10:40:28.589Z,1011.16
2022-09-04T10:41:28.575Z,1011.16
2022-09-04T10:42:28.563Z,1011.18
2022-09-04T10:43:28.548Z,1011.19
2022-09-04T10:44:28.536Z,1011.16
2022-09-04T10:45:28.557Z,1011.19
2022-09-04T10:46:28.594Z,1011.17
2022-09-04T10:47:28.492Z,1011.13
2022-09-04T10:48:28.904Z,1011.17
2022-09-04T10:49:28.466Z,1011.15
2022-09-04T10:50:28.453Z,1011.17
2022-09-04T10:51:28.442Z,1011.16
2022-09-04T10:52:28.426Z,1011.16
2022-09-04T10:53:28.637Z,1011.13
2022-09-04T10:54:28.400Z,1011.15
2022-09-04T10:55:28.384Z,1011.19
2022-09-04T10:56:28.374Z,1011.19
2022-09-04T10:57:28.362Z,1011.16
2022-09-04T10:58:28.348Z,1011.18
2022-09-04T10:59:28.333Z,1011.16
2022-09-04T11:00:28.324Z,1011.19
2022-09-04T11:01:28.402Z,1011.17
2022-09-04T11:02:28.350Z,1011.13
2022-09-04T11:03:28.283Z,1011.14
2022-09-04T11:04:28.267Z,1011.13
2022-09-04T11:05:28.249Z,1011.17
2022-09-04T11:06:28.237Z,1011.14
2022-09-04T11:07:28.921Z,1011.16
2022-09-04T11:08:28.211Z,1011.20
2022-09-04T11:09:28.200Z,1011.21
2022-09-04T11:10:28.184Z,1011.18
2022-09-04T11:11:28.169Z,1011.18
2022-09-04T11:12:28.163Z,1011.18
2022-09-04T11:13:28.154Z,1011.21
2022-09-04T11:14:28.132Z,1011.15
2022-09-04T11:15:28.116Z,1011.13
2022-09-04T11:16:28.153Z,1011.17
2022-09-04T11:17:28.092Z,1011.17
2022-09-04T11:18:28.080Z,1011.15
2022-09-04T11:19:28.065Z,1011.14
2022-09-04T11:20:28.054Z,1011.18
2022-09-04T11:21:28.037Z,1011.21
2022-09-04T11:22:28.045Z,1011.19
2022-09-04T11:23:28.013Z,1011.19
2022-09-04T11:24:28.001Z,1011.20
2022-09-04T11:25:27.986Z,1011.20
2022-09-04T11:26:27.974Z,1011.22
2022-09-04T11:27:27.957Z,1011.24
2022-09-04T11:28:27.946Z,1011.22
2022-09-04T11:29:27.929Z,1011.21
2022-09-04T11:30:27.919Z,1011.19
2022-09-04T11:31:27.939Z,1011.19
2022-09-04T11:32:27.890Z,1011.20
2022-09-04T11:33:27.878Z,1011.19
2022-09-04T11:34:27.864Z,1011.18
2022-09-04T11:35:28.558Z,1011.15
2022-09-04T11:36:27.836Z,1011.17
2022-09-04T11:37:27.821Z,1011.15
2022-09-04T11:38:27.808Z,1011.16
2022-09-04T11:39:27.846Z,1011.08
2022-09-04T11:40:27.908Z,1011.09
2022-09-04T11:41:27.766Z,1011.10
2022-09-04T11:42:27.752Z,1011.13
2022-09-04T11:43:27.738Z,1011.09
2022-09-04T11:45:27.762Z,1011.12
2022-09-04T11:46:27.694Z,1011.10
2022-09-04T11:47:27.685Z,1011.13
2022-09-04T11:48:27.669Z,1011.09
2022-09-04T11:49:27.670Z,1011.12
2022-09-04T11:50:27.640Z,1011.13
2022-09-04T11:51:27.628Z,1011.09
2022-09-04T11:52:27.614Z,1011.11
2022-09-04T11:53:27.601Z,1011.12
2022-09-04T11:54:27.584Z,1011.11
2022-09-04T11:55:27.573Z,1011.10
2022-09-04T11:56:27.563Z,1011.14
2022-09-04T11:57:27.547Z,1011.10
2022-09-04T11:58:27.528Z,1011.13
2022-09-04T11:59:27.520Z,1011.15
2022-09-04T12:00:27.502Z,1011.10
2022-09-04T12:01:27.489Z,1011.14
2022-09-04T12:02:27.542Z,1011.05
2022-09-04T12:03:27.464Z,1011.05
2022-09-04T12:04:27.445Z,1011.05
2022-09-04T12:05:27.433Z,1011.04
2022-09-04T12:06:27.418Z,1011.07